METAR Data
IDs: Format: Raw Decoded Include TAF

Data at: 0726 UTC 07 Dec 2022

KBKE 070653Z AUTO 22003KT 8SM OVC003 M04/M06 A3016 RMK AO2 SLP249 T10441061
KBKE 070553Z AUTO 00000KT 7SM OVC003 M05/M07 A3016 RMK AO2 SLP249 I1000 I6000 T10501067 11033 21050 51012
KBKE 070453Z AUTO 00000KT 7SM OVC004 M04/M06 A3015 RMK AO2 SLP245 T10391056
KBKE 070353Z AUTO 24003KT 8SM OVC004 M04/M06 A3014 RMK AO2 SLP243 T10441061
KBKE 070253Z AUTO 24004KT 5SM BR OVC003 M04/M06 A3012 RMK AO2 SLP236 T10391061 51012
KBKE 070204Z AUTO 00000KT 4SM BR OVC003 M03/M05 A3011 RMK AO2 T10331050
KBKE 070153Z AUTO 00000KT 2SM BR OVC003 M03/M05 A3011 RMK AO2 SLP233 T10331050
KBKE 070132Z AUTO 00000KT 1 3/4SM BR OVC003 M03/M05 A3010 RMK AO2 T10331050
KBKE 070121Z AUTO 00000KT 3SM BR OVC003 M04/M06 A3010 RMK AO2 T10391056
KBKE 070114Z AUTO 00000KT 2 1/2SM BR OVC003 M03/M06 A3010 RMK AO2 T10331056
KBKE 070053Z AUTO 00000KT 5SM BR OVC003 M04/M06 A3009 RMK AO2 SLP227 T10391056
KBKE 062353Z AUTO 00000KT 8SM OVC004 M04/M06 A3008 RMK AO2 SLP223 T10391061 11039 21056 53004
KBKE 062253Z AUTO 25004KT 7SM OVC003 M04/M07 A3007 RMK AO2 SLP219 T10441067
KBKE 062204Z AUTO 24006KT 4SM BR OVC003 M04/M06 A3006 RMK AO2 T10391061
KBKE 062153Z AUTO 25005KT 2SM BR OVC003 M04/M06 A3007 RMK AO2 SLP216 T10391061
KBKE 062149Z AUTO 24005KT 1 3/4SM BR OVC003 M04/M06 A3007 RMK AO2
KBKE 062134Z AUTO 26004KT 2SM BR OVC003 M04/M06 A3007 RMK AO2 T10391061
KBKE 062059Z AUTO 00000KT 3SM BR OVC002 M04/M06 A3006 RMK AO2 T10391061
KBKE 062053Z AUTO 26003KT 1 1/2SM BR OVC002 M04/M06 A3006 RMK AO2 SLP213 T10391061 55005
KBKE 062050Z AUTO 25003KT 1 1/4SM BR OVC002 M04/M06 A3006 RMK AO2
KBKE 061953Z AUTO 25003KT 3/4SM BR OVC002 M04/M06 A3007 RMK AO2 SLP218 T10391061
KBKE 061923Z AUTO 00000KT 1/2SM FZFG VV003 M04/M06 A3007 RMK AO2 T10391056
KBKE 061906Z AUTO 00000KT 1/4SM FZFG VV003 M04/M06 A3007 RMK AO2 T10391061
KBKE 061853Z AUTO 27003KT 1/2SM FZFG VV003 M04/M06 A3008 RMK AO2 SLP218 T10441061
KBKE 061753Z AUTO 00000KT 1/4SM FZFG VV003 M06/M07 A3007 RMK AO2 SLP217 I1000 I6014 T10561067 11056 21072 51013
KBKE 061746Z AUTO 19003KT 1/4SM FZFG VV003 M06/M07 A3007 RMK AO2 I1000 T10561072
KBKE 061704Z AUTO 23003KT 1/2SM FZFG VV003 M06/M08 A3007 RMK AO2 T10611078
KBKE 061653Z AUTO 00000KT 1/4SM FZFG VV003 M06/M08 A3007 RMK AO2 SLP217 I1002 T10611078
KBKE 061619Z AUTO 00000KT 1/4SM FZFG VV003 M07/M08 A3005 RMK AO2 I1002 T10671083
KBKE 061553Z AUTO 19004KT 1/2SM FZFG VV003 M07/M09 A3005 RMK AO2 SLP212 I1004 T10721089
KBKE 061535Z AUTO 20004KT 1/2SM FZFG VV003 M07/M08 A3004 RMK AO2 I1003 T10671083
KBKE 061526Z AUTO 23004KT 1/4SM FZFG VV003 M07/M08 A3004 RMK AO2 I1002 T10721083
KBKE 061453Z AUTO 21005KT 3/4SM BR VV003 M07/M08 A3003 RMK AO2 SLP204 I1002 I3008 T10671083 53009
KBKE 061405Z AUTO 00000KT 1/2SM FZFG VV003 M07/M07 A3002 RMK AO2 I1001 T10671072
KBKE 061353Z AUTO 23005KT 1/4SM FZFG VV002 M07/M08 A3002 RMK AO2 SLP198 I1003 T10671078
KBKE 061300Z AUTO 17003KT 1/4SM FZFG VV002 M07/M08 A3001 RMK AO2 I1000 T10671078
KBKE 061253Z AUTO 21003KT 1/2SM FZFG VV002 M07/M08 A3001 RMK AO2 SLP197 I1003 T10671078
KBKE 061153Z AUTO 21005KT 1/2SM FZFG VV002 M06/M07 A3000 RMK AO2 SLP192 I1004 I6014 T10611072 11028 21061 58000
KBKE 061053Z AUTO 21005KT 1/4SM FZFG VV002 M06/M07 A3001 RMK AO2 SLP192 I1007 T10561067
KBKE 061048Z AUTO 21006KT 1/4SM FZFG VV002 M06/M07 A3001 RMK AO2 I1005
KBKE 060953Z AUTO 20005KT 3/4SM BR VV002 M05/M06 A3000 RMK AO2 SLP191 I1002 T10501061
KBKE 060853Z AUTO 20006KT 1/2SM FZFG VV003 M05/M06 A2999 RMK AO2 SLP186 I1001 I3001 T10501056 51004
KBKE 060803Z AUTO 16005KT 3/4SM BR VV003 M04/M05 A2998 RMK AO2 I1000 T10391050
KBKE 060753Z AUTO 16005KT 1 1/4SM BR OVC002 M04/M05 A2998 RMK AO2 SLP183 T10391050 410171072
KBKE 060716Z AUTO 17004KT 2 1/2SM BR OVC003 M04/M05 A2998 RMK AO2 T10391050
KBKE 060653Z AUTO 17003KT 6SM BR OVC004 M03/M04 A2998 RMK AO2 SLP182 T10331044
KBKE 060623Z AUTO 00000KT 7SM OVC004 M03/M04 A2998 RMK AO2 T10331044
KBKE 060553Z AUTO 00000KT 9SM OVC005 M03/M04 A2998 RMK AO2 SLP180 T10281044 11017 21033 51008
KBKE 060453Z AUTO 00000KT 8SM OVC007 M03/M04 A2997 RMK AO2 SLP178 T10281044
KBKE 060353Z AUTO 00000KT 10SM OVC007 M03/M05 A2996 RMK AO2 SLP177 T10331050
KBKE 060253Z AUTO 00000KT 10SM OVC008 M03/M04 A2995 RMK AO2 SLP172 T10281044 53001
KBKE 060153Z AUTO 00000KT 10SM OVC008 M03/M04 A2994 RMK AO2 SLP167 T10281044
KBKE 060053Z AUTO 00000KT 10SM OVC009 M02/M04 A2994 RMK AO2 SLP166 T10221039
KBKE 052353Z AUTO 00000KT 10SM OVC009 M02/M04 A2995 RMK AO2 SLP168 T10171039 11017 21033
KBKE 052321Z AUTO 00000KT 10SM OVC009 M02/M04 A2994 RMK AO2 T10171039
KBKE 052253Z AUTO 00000KT 10SM OVC010 M02/M04 A2994 RMK AO2 SLP166 T10171039 $
KBKE 052219Z AUTO 26004KT 10SM OVC010 M02/M04 A2994 RMK AO2 T10171039 $
KBKE 052153Z AUTO 22004KT 10SM M02/M03 A2994 RMK AO2 SLP168 T10171033 $
KBKE 052053Z AUTO 28003KT 10SM OVC010 M02/M03 A2995 RMK AO2 CIG 007V012 SLP176 T10221033 58015
KBKE 051953Z AUTO 23005KT 10SM OVC007 M02/M04 A2998 RMK AO2 SLP180 T10221039